Time;durP1;ratioP1;P1;durP2;ratioP2;P2;SDS_P1;SDS_P2;PMS_P1;PMS_P2;Temp;Humidity;BMP_temperature;BMP_pressure;BME280_temperature;BME280_humidity;BME280_pressure;Samples;Min_cycle;Max_cycle;Signal;HPM_P1;HPM_P2
2022/12/21 00:01:31;;;;;;;26.98;11.63;;;-5.10;99.90;;;;;;5139083;27;20046;-83
2022/12/21 00:04:03;;;;;;;26.98;11.68;;;-5.10;99.90;;;;;;5130010;27;20053;-82
2022/12/21 00:06:33;;;;;;;29.88;11.88;;;-5.10;99.90;;;;;;5145743;27;20487;-83
2022/12/21 00:09:02;;;;;;;24.25;11.73;;;-5.10;99.90;;;;;;5145605;27;20049;-81
2022/12/21 00:11:32;;;;;;;25.98;11.27;;;-5.10;99.90;;;;;;5137768;27;20046;-83
2022/12/21 00:14:03;;;;;;;31.35;12.95;;;-5.10;99.90;;;;;;5147610;27;20043;-83
2022/12/21 00:16:33;;;;;;;27.80;11.98;;;-5.10;99.90;;;;;;5143416;27;20046;-82
2022/12/21 00:19:02;;;;;;;25.98;11.90;;;-5.20;99.90;;;;;;5136255;27;20497;-78
2022/12/21 00:21:33;;;;;;;26.98;11.10;;;-5.20;99.90;;;;;;5148369;27;20548;-80
2022/12/21 00:24:00;;;;;;;28.95;12.95;;;-5.20;99.90;;;;;;5145023;27;20052;-80
2022/12/21 00:26:31;;;;;;;28.15;12.02;;;-5.20;99.90;;;;;;5139495;27;20124;-82
2022/12/21 00:28:59;;;;;;;27.63;12.15;;;-5.20;99.90;;;;;;5148531;27;20054;-82
2022/12/21 00:31:30;;;;;;;17.55;9.50;;;-5.20;99.90;;;;;;5133391;27;20567;-82
2022/12/21 00:33:59;;;;;;;24.75;12.32;;;-5.20;99.90;;;;;;5128893;27;20443;-81
2022/12/21 00:36:30;;;;;;;24.95;11.93;;;-5.20;99.90;;;;;;5130605;27;20035;-81
2022/12/21 00:38:58;;;;;;;22.95;9.90;;;-5.20;99.90;;;;;;5122174;28;20047;-81
2022/12/21 00:41:27;;;;;;;24.55;12.40;;;-5.20;99.90;;;;;;5132927;27;20138;-82
2022/12/21 00:43:56;;;;;;;31.02;13.18;;;-5.10;99.90;;;;;;5133019;27;20433;-81
2022/12/21 00:46:27;;;;;;;31.52;13.70;;;-5.20;99.90;;;;;;5111863;28;20043;-83
2022/12/21 00:48:57;;;;;;;23.20;12.20;;;-5.10;99.90;;;;;;5139618;27;20066;-83
2022/12/21 00:51:28;;;;;;;23.05;10.95;;;-5.10;99.90;;;;;;5123752;27;20050;-83
2022/12/21 00:53:58;;;;;;;28.58;10.75;;;-5.10;99.90;;;;;;5146827;27;20422;-81
2022/12/21 00:56:27;;;;;;;31.40;13.18;;;-5.00;99.90;;;;;;5135266;27;20513;-81
2022/12/21 00:58:55;;;;;;;28.15;12.50;;;-5.00;99.90;;;;;;5136856;27;20051;-82
2022/12/21 01:01:25;;;;;;;28.20;13.73;;;-5.00;99.90;;;;;;5117618;27;20491;-82
2022/12/21 01:03:54;;;;;;;31.73;14.38;;;-4.90;99.90;;;;;;5129050;28;20100;-81
2022/12/21 01:06:26;;;;;;;35.78;14.75;;;-4.90;99.90;;;;;;5112284;27;20043;-81
2022/12/21 01:08:55;;;;;;;29.42;13.82;;;-5.00;99.90;;;;;;5134217;27;20051;-83
2022/12/21 01:11:25;;;;;;;28.13;13.20;;;-5.00;99.90;;;;;;5135882;27;20050;-82
2022/12/21 01:13:54;;;;;;;27.65;12.68;;;-5.00;99.90;;;;;;5147174;27;20047;-81
2022/12/21 01:16:24;;;;;;;28.20;13.80;;;-5.00;99.90;;;;;;5133234;27;20046;-82
2022/12/21 01:18:52;;;;;;;33.58;14.13;;;-4.90;99.90;;;;;;5140224;27;20157;-82
2022/12/21 01:21:24;;;;;;;32.25;12.75;;;-4.90;99.90;;;;;;5131915;27;20079;-80
2022/12/21 01:23:51;;;;;;;31.00;14.00;;;-5.00;99.90;;;;;;5128971;27;20069;-81
2022/12/21 01:26:21;;;;;;;29.50;13.63;;;-4.90;99.90;;;;;;5131446;27;20058;-82
2022/12/21 01:28:49;;;;;;;29.98;13.45;;;-5.00;99.90;;;;;;5134250;27;20141;-82
2022/12/21 01:31:16;;;;;;;33.55;14.43;;;-4.90;99.90;;;;;;5131937;27;20039;-78
2022/12/21 01:33:45;;;;;;;24.38;12.40;;;-4.90;99.90;;;;;;5136436;27;20503;-82
2022/12/21 01:36:15;;;;;;;25.13;12.35;;;-4.90;99.90;;;;;;5140038;27;20043;-82
2022/12/21 01:38:44;;;;;;;27.45;11.60;;;-4.90;99.90;;;;;;5132460;27;20047;-82
2022/12/21 01:41:16;;;;;;;30.92;12.63;;;-4.80;99.90;;;;;;5132138;27;20134;-81
2022/12/21 01:43:49;;;;;;;24.98;12.25;;;-4.80;99.90;;;;;;5144591;27;20418;-82
2022/12/21 01:46:31;;;;;;;31.92;13.63;;;-4.80;99.90;;;;;;5149587;27;20035;-82
2022/12/21 01:49:05;;;;;;;28.20;12.50;;;-4.80;99.90;;;;;;5138605;27;20542;-84
2022/12/21 01:51:37;;;;;;;26.33;12.85;;;-4.80;99.90;;;;;;5133097;27;20219;-82
2022/12/21 01:54:12;;;;;;;29.65;13.73;;;-4.80;99.90;;;;;;5134937;27;20051;-81
2022/12/21 01:56:47;;;;;;;28.13;14.27;;;-4.80;99.90;;;;;;5144686;27;20548;-82
2022/12/21 01:59:25;;;;;;;28.92;14.18;;;-4.80;99.90;;;;;;5120626;27;20051;-81
2022/12/21 02:01:53;;;;;;;23.70;12.32;;;-4.80;99.90;;;;;;5132558;27;20092;-82
2022/12/21 02:04:23;;;;;;;28.23;11.35;;;-4.80;99.90;;;;;;5153408;27;20062;-82
2022/12/21 02:06:55;;;;;;;24.65;12.18;;;-4.80;99.90;;;;;;5150226;27;20055;-81
2022/12/21 02:09:25;;;;;;;29.25;13.30;;;-4.80;99.90;;;;;;5136855;27;20047;-82
2022/12/21 02:11:54;;;;;;;27.20;12.15;;;-4.70;99.90;;;;;;5148733;27;20049;-77
2022/12/21 02:14:23;;;;;;;24.85;12.45;;;-4.70;99.90;;;;;;5119880;27;20038;-76
2022/12/21 02:17:03;;;;;;;27.58;12.98;;;-4.70;99.90;;;;;;5145932;27;20129;-77
2022/12/21 02:20:11;;;;;;;25.23;11.52;;;-4.70;99.90;;;;;;5131903;27;20103;-77
2022/12/21 02:23:03;;;;;;;26.02;11.02;;;-4.60;99.90;;;;;;5135156;27;20513;-76
2022/12/21 02:26:23;;;;;;;31.48;13.88;;;-4.60;99.90;;;;;;5115285;27;20055;-76
2022/12/21 02:29:29;;;;;;;33.78;13.48;;;-4.60;99.90;;;;;;5114540;27;20076;-76
2022/12/21 02:32:07;;;;;;;24.95;13.05;;;-4.50;99.90;;;;;;5143974;27;20108;-76
2022/12/21 02:34:45;;;;;;;29.48;13.45;;;-4.50;99.90;;;;;;5135629;27;20514;-76
2022/12/21 02:37:19;;;;;;;23.15;11.65;;;-4.50;99.90;;;;;;5146674;27;20134;-76
2022/12/21 02:39:58;;;;;;;26.58;12.23;;;-4.40;99.90;;;;;;5118498;27;20055;-76
2022/12/21 02:45:31;;;;;;;24.75;11.38;;;-4.40;99.90;;;;;;5145974;27;20053;-76
2022/12/21 02:48:11;;;;;;;20.92;10.80;;;-4.40;99.90;;;;;;5147684;27;20419;-76
2022/12/21 02:50:46;;;;;;;26.85;12.20;;;-4.40;99.90;;;;;;5145358;27;20043;-77
2022/12/21 02:53:19;;;;;;;24.17;12.60;;;-4.30;99.90;;;;;;5153617;27;20096;-76
2022/12/21 02:55:47;;;;;;;27.63;13.70;;;-4.30;99.90;;;;;;5145021;27;20495;-76
2022/12/21 02:58:18;;;;;;;27.55;13.55;;;-4.30;99.90;;;;;;5150831;27;20486;-76
2022/12/21 03:01:08;;;;;;;24.63;11.85;;;-4.30;99.90;;;;;;5138286;27;20051;-76
2022/12/21 03:04:15;;;;;;;24.05;11.20;;;-4.30;99.90;;;;;;5133006;27;20057;-76
2022/12/21 03:07:08;;;;;;;21.27;11.27;;;-4.20;99.90;;;;;;5117832;27;20054;-75
2022/12/21 03:09:51;;;;;;;25.15;12.05;;;-4.20;99.90;;;;;;5144846;27;20612;-76
2022/12/21 03:12:40;;;;;;;24.73;10.60;;;-4.20;99.90;;;;;;5138062;27;20138;-75
2022/12/21 03:15:19;;;;;;;26.98;13.30;;;-4.10;99.90;;;;;;5141866;27;20442;-77
2022/12/21 03:17:55;;;;;;;29.95;13.27;;;-4.10;99.90;;;;;;5132063;27;20107;-77
2022/12/21 03:20:29;;;;;;;24.48;11.38;;;-4.10;99.90;;;;;;5138186;27;20074;-77
2022/12/21 03:23:04;;;;;;;25.55;11.60;;;-4.10;99.90;;;;;;5146747;27;20043;-77
2022/12/21 03:25:35;;;;;;;27.02;11.73;;;-4.00;99.90;;;;;;5128159;27;20435;-78
2022/12/21 03:28:09;;;;;;;26.50;13.13;;;-4.10;99.90;;;;;;5132301;27;20050;-78
2022/12/21 03:30:52;;;;;;;27.83;13.35;;;-4.00;99.90;;;;;;5135180;27;20292;-76
2022/12/21 03:33:23;;;;;;;25.55;11.43;;;-4.00;99.90;;;;;;5162798;27;20047;-75
2022/12/21 03:35:56;;;;;;;29.13;12.25;;;-4.00;99.90;;;;;;5130616;27;20077;-76
2022/12/21 03:38:29;;;;;;;28.10;13.20;;;-4.00;99.90;;;;;;5142752;27;20043;-75
2022/12/21 03:40:59;;;;;;;28.60;12.80;;;-4.00;99.90;;;;;;5134337;27;20051;-75
2022/12/21 03:43:32;;;;;;;29.73;13.18;;;-4.00;99.90;;;;;;5148472;27;20506;-76
2022/12/21 03:46:03;;;;;;;27.15;12.57;;;-3.90;99.90;;;;;;5132864;27;20050;-76
2022/12/21 03:48:37;;;;;;;23.55;11.82;;;-3.90;99.90;;;;;;5155112;27;20048;-77
2022/12/21 03:51:14;;;;;;;24.15;11.05;;;-3.80;99.90;;;;;;5153124;27;20047;-76
2022/12/21 03:53:47;;;;;;;29.55;12.38;;;-3.70;99.90;;;;;;5125147;27;20080;-76
2022/12/21 03:56:26;;;;;;;21.85;10.57;;;-3.80;99.90;;;;;;5135620;27;20062;-76
2022/12/21 03:58:54;;;;;;;25.30;11.40;;;-3.70;99.90;;;;;;5124684;27;20083;-75
2022/12/21 04:01:34;;;;;;;26.95;12.38;;;-3.80;99.90;;;;;;5149648;27;20081;-77
2022/12/21 04:04:12;;;;;;;25.52;10.88;;;-3.70;99.90;;;;;;5130080;27;20498;-76
2022/12/21 04:06:43;;;;;;;24.40;10.88;;;-3.70;99.90;;;;;;5141495;27;20533;-73
2022/12/21 04:09:14;;;;;;;23.45;11.38;;;-3.70;99.90;;;;;;5152527;27;20042;-74
2022/12/21 04:14:28;;;;;;;24.48;12.25;;;-3.70;99.90;;;;;;5145393;27;20051;-73
2022/12/21 04:16:56;;;;;;;25.42;11.68;;;-3.60;99.90;;;;;;5139841;27;20096;-73
2022/12/21 04:28:06;;;;;;;22.67;11.90;;;-3.60;99.90;;;;;;5142506;27;20055;-78
2022/12/21 04:30:39;;;;;;;25.73;11.55;;;-3.60;99.90;;;;;;5112273;27;20199;-78
2022/12/21 04:33:09;;;;;;;24.05;11.52;;;-3.50;99.90;;;;;;5132100;27;20123;-72
2022/12/21 04:37:30;;;;;;;27.27;11.90;;;-3.50;99.90;;;;;;5160609;27;20016;-78
2022/12/21 04:38:27;;;;;;;24.13;11.13;;;-3.50;99.90;;;;;;5139899;27;20524;-76
2022/12/21 04:40:58;;;;;;;21.55;10.38;;;-3.50;99.90;;;;;;5152497;27;20215;-77
2022/12/21 04:43:27;;;;;;;23.42;10.77;;;-3.50;99.90;;;;;;5128935;27;20043;-76
2022/12/21 04:46:01;;;;;;;21.50;11.02;;;-3.50;99.90;;;;;;5131138;27;20205;-77
2022/12/21 04:48:30;;;;;;;24.85;11.35;;;-3.50;99.90;;;;;;5138653;27;20051;-74
2022/12/21 04:51:03;;;;;;;21.35;10.85;;;-3.40;99.90;;;;;;5141693;27;20517;-75
2022/12/21 04:53:48;;;;;;;27.20;12.07;;;-3.50;99.90;;;;;;5136518;27;20047;-78
2022/12/21 04:56:38;;;;;;;22.55;9.90;;;-3.40;99.90;;;;;;5129315;27;20545;-75
2022/12/21 04:59:06;;;;;;;21.15;10.88;;;-3.30;99.90;;;;;;5138299;27;20081;-76
2022/12/21 05:01:37;;;;;;;20.27;10.60;;;-3.30;99.90;;;;;;5136806;27;20043;-76
2022/12/21 05:04:05;;;;;;;21.00;10.38;;;-3.30;99.90;;;;;;5117707;27;20050;-77
2022/12/21 05:06:34;;;;;;;21.15;9.80;;;-3.30;99.90;;;;;;5145578;27;20074;-77
2022/12/21 05:09:03;;;;;;;18.52;9.75;;;-3.30;99.90;;;;;;5144089;27;20047;-75
2022/12/21 05:11:31;;;;;;;19.27;9.30;;;-3.20;99.90;;;;;;5130755;27;20050;-75
2022/12/21 05:13:59;;;;;;;19.95;10.15;;;-3.20;99.90;;;;;;5131354;27;20054;-75
2022/12/21 05:16:27;;;;;;;21.25;11.25;;;-3.20;99.90;;;;;;5130866;28;20050;-75
2022/12/21 05:18:54;;;;;;;20.55;9.90;;;-3.20;99.90;;;;;;5141274;27;20080;-77
2022/12/21 05:21:22;;;;;;;20.27;10.05;;;-3.10;99.90;;;;;;5142579;27;20142;-77
2022/12/21 05:23:50;;;;;;;19.05;10.13;;;-3.10;99.90;;;;;;5141388;27;20493;-75
2022/12/21 05:26:19;;;;;;;22.40;10.10;;;-3.00;99.90;;;;;;5145392;27;20046;-76
2022/12/21 05:28:47;;;;;;;17.98;9.95;;;-3.00;99.90;;;;;;5137964;27;20046;-76
2022/12/21 05:31:17;;;;;;;17.63;9.52;;;-3.00;99.90;;;;;;5153089;27;20061;-75
2022/12/21 05:33:45;;;;;;;23.25;10.65;;;-3.00;99.90;;;;;;5154314;27;20478;-76
2022/12/21 05:36:15;;;;;;;19.55;10.30;;;-3.00;99.90;;;;;;5155679;27;20042;-76
2022/12/21 05:38:43;;;;;;;23.45;10.50;;;-3.00;99.90;;;;;;5135274;27;20053;-74
2022/12/21 05:41:12;;;;;;;18.05;9.63;;;-3.00;99.90;;;;;;5135424;27;20047;-76
2022/12/21 05:43:41;;;;;;;18.80;10.55;;;-3.00;99.90;;;;;;5143279;27;20585;-73
2022/12/21 05:46:11;;;;;;;23.58;10.98;;;-3.00;99.90;;;;;;5150372;27;20039;-74
2022/12/21 05:48:39;;;;;;;23.35;11.57;;;-3.00;99.90;;;;;;5138102;27;20107;-73
2022/12/21 05:51:08;;;;;;;22.38;11.20;;;-2.90;99.90;;;;;;5133224;27;20039;-75
2022/12/21 05:53:37;;;;;;;22.30;10.18;;;-2.90;99.90;;;;;;5137906;27;20072;-73
2022/12/21 05:56:06;;;;;;;17.08;9.10;;;-2.90;99.90;;;;;;5152111;27;20093;-73
2022/12/21 05:58:33;;;;;;;24.40;11.20;;;-2.90;99.90;;;;;;5138152;27;20043;-72
2022/12/21 06:01:05;;;;;;;21.42;10.80;;;-2.80;99.90;;;;;;5137589;27;20039;-76
2022/12/21 06:03:33;;;;;;;23.70;10.45;;;-2.80;99.90;;;;;;5145430;27;20107;-74
2022/12/21 06:06:06;;;;;;;20.25;9.98;;;-2.70;99.90;;;;;;5143266;27;20502;-74
2022/12/21 06:08:33;;;;;;;;;;;-2.70;99.90;;;;;;5135279;27;20039;-73
2022/12/21 06:11:07;;;;;;;19.98;10.45;;;-2.70;99.90;;;;;;5131624;27;19931;-74
2022/12/21 06:13:34;;;;;;;19.48;11.27;;;-2.70;99.90;;;;;;5133967;27;20556;-75
2022/12/21 06:16:08;;;;;;;17.02;10.13;;;-2.60;99.90;;;;;;5138655;27;20452;-76
2022/12/21 06:18:37;;;;;;;22.52;10.30;;;-2.50;99.90;;;;;;5140844;27;20047;-75
2022/12/21 06:21:06;;;;;;;19.55;10.50;;;-2.50;99.90;;;;;;5132068;27;20051;-75
2022/12/21 06:23:34;;;;;;;19.80;10.30;;;-2.50;99.90;;;;;;5142038;27;20041;-74
2022/12/21 06:26:04;;;;;;;20.30;10.20;;;-2.30;99.90;;;;;;5142307;27;20052;-74
2022/12/21 06:28:33;;;;;;;20.95;10.20;;;-2.20;99.90;;;;;;5137711;27;20084;-74
2022/12/21 06:31:08;;;;;;;18.38;9.75;;;-2.10;99.90;;;;;;5133849;27;20054;-74
2022/12/21 06:34:11;;;;;;;21.67;10.20;;;-2.00;99.90;;;;;;5135914;27;20058;-74
2022/12/21 06:36:48;;;;;;;17.88;9.90;;;-2.00;99.90;;;;;;5093526;27;20464;-74
2022/12/21 06:39:16;;;;;;;18.73;9.35;;;-2.00;99.90;;;;;;5135319;27;20533;-75
2022/12/21 06:41:43;;;;;;;18.08;9.57;;;-2.00;99.90;;;;;;5146353;27;20055;-73
2022/12/21 06:44:11;;;;;;;27.23;10.63;;;-2.00;99.90;;;;;;5148620;27;20050;-75
2022/12/21 06:46:40;;;;;;;22.35;9.38;;;-2.00;99.90;;;;;;5153253;27;20103;-74
2022/12/21 06:49:07;;;;;;;21.40;9.70;;;-2.00;99.90;;;;;;5152799;27;20054;-75
2022/12/21 06:51:35;;;;;;;17.90;10.32;;;-1.90;99.90;;;;;;5149065;27;20053;-76
2022/12/21 06:54:03;;;;;;;18.70;9.38;;;-1.80;99.90;;;;;;5150672;27;20142;-75
2022/12/21 06:56:32;;;;;;;18.58;9.30;;;-1.80;99.90;;;;;;5152324;27;20046;-74
2022/12/21 06:59:00;;;;;;;21.13;10.85;;;-1.80;99.90;;;;;;5132354;27;20058;-76
2022/12/21 07:01:31;;;;;;;17.10;8.82;;;-1.80;99.90;;;;;;5133166;27;20161;-74
2022/12/21 07:04:00;;;;;;;15.57;8.02;;;-1.80;99.90;;;;;;5151366;27;20050;-74
2022/12/21 07:06:31;;;;;;;19.40;9.90;;;-1.80;99.90;;;;;;5152067;27;20084;-75
2022/12/21 07:08:59;;;;;;;22.90;11.00;;;-1.80;99.90;;;;;;5135778;27;20366;-75
2022/12/21 07:11:29;;;;;;;20.02;10.85;;;-1.80;99.90;;;;;;5147201;27;20169;-76
2022/12/21 07:13:58;;;;;;;24.45;11.93;;;-1.80;99.90;;;;;;5138059;27;20057;-75
2022/12/21 07:16:25;;;;;;;23.15;11.10;;;-1.80;99.90;;;;;;5132710;27;20533;-75
2022/12/21 07:18:54;;;;;;;22.50;11.77;;;-1.80;99.90;;;;;;5145880;27;20494;-77
2022/12/21 07:21:23;;;;;;;19.98;11.10;;;-1.70;99.90;;;;;;5142701;27;20104;-74
2022/12/21 07:23:51;;;;;;;25.15;12.23;;;-1.70;99.90;;;;;;5132413;27;20053;-75
2022/12/21 07:26:21;;;;;;;28.17;11.77;;;-1.60;99.90;;;;;;5131081;27;20072;-74
2022/12/21 07:28:50;;;;;;;23.77;12.27;;;-1.70;99.90;;;;;;5148574;27;20050;-74
2022/12/21 07:31:23;;;;;;;23.17;11.80;;;-1.60;99.90;;;;;;5132121;27;20051;-75
2022/12/21 07:33:50;;;;;;;;;;;-1.60;99.90;;;;;;5141807;27;20046;-75
2022/12/21 07:36:18;;;;;;;27.55;13.45;;;-1.60;99.90;;;;;;5145917;27;19924;-75
2022/12/21 07:39:03;;;;;;;28.33;13.43;;;-1.60;99.90;;;;;;5131267;27;20209;-75
2022/12/21 07:41:34;;;;;;;24.75;13.50;;;-1.50;99.90;;;;;;5042820;28;20053;-76
2022/12/21 07:44:03;;;;;;;24.83;13.55;;;-1.50;99.90;;;;;;5067521;28;20465;-75
2022/12/21 07:46:49;;;;;;;27.95;14.15;;;-1.40;99.90;;;;;;5043437;28;20517;-75
2022/12/21 07:49:24;;;;;;;23.60;13.70;;;-1.30;99.90;;;;;;5018649;28;20425;-76
2022/12/21 07:51:52;;;;;;;27.10;14.60;;;-1.30;99.90;;;;;;5035556;28;20053;-74
2022/12/21 07:54:19;;;;;;;27.58;14.35;;;-1.30;99.90;;;;;;5030683;28;20053;-76
2022/12/21 07:56:49;;;;;;;26.80;13.48;;;-1.30;99.90;;;;;;5029242;28;20075;-76
2022/12/21 07:59:18;;;;;;;25.48;13.68;;;-1.30;99.90;;;;;;5025610;28;20053;-77
2022/12/21 08:01:46;;;;;;;31.42;16.15;;;-1.30;99.90;;;;;;5028876;28;20081;-77
2022/12/21 08:04:14;;;;;;;26.95;14.40;;;-1.30;99.90;;;;;;5030732;28;20076;-81
2022/12/21 08:06:42;;;;;;;25.30;14.73;;;-1.20;99.90;;;;;;5025551;28;20569;-81
2022/12/21 08:09:11;;;;;;;25.50;12.50;;;-1.20;99.90;;;;;;5030702;28;20433;-77
2022/12/21 08:11:39;;;;;;;21.08;11.85;;;-1.10;99.90;;;;;;5029334;28;20060;-77
2022/12/21 08:14:09;;;;;;;21.50;11.70;;;-1.10;99.90;;;;;;5030564;28;20049;-78
2022/12/21 08:16:38;;;;;;;26.60;13.13;;;-1.10;99.90;;;;;;5020298;28;20516;-76
2022/12/21 08:19:08;;;;;;;17.20;11.10;;;-1.10;99.90;;;;;;5039184;28;20054;-77
2022/12/21 08:21:36;;;;;;;20.15;11.45;;;-1.10;99.90;;;;;;5013397;28;20096;-76
2022/12/21 08:24:05;;;;;;;20.25;11.45;;;-1.10;99.90;;;;;;5024552;28;20045;-77
2022/12/21 08:26:37;;;;;;;20.65;10.77;;;-1.10;99.90;;;;;;5030011;28;20051;-76
2022/12/21 08:29:07;;;;;;;25.25;12.10;;;-1.20;99.90;;;;;;5025592;28;20458;-77
2022/12/21 08:31:37;;;;;;;18.38;11.98;;;-1.20;99.90;;;;;;5032482;28;20697;-75
2022/12/21 08:34:07;;;;;;;19.33;9.98;;;-1.10;99.90;;;;;;5024070;28;20053;-75
2022/12/21 08:36:35;;;;;;;18.45;10.07;;;-1.10;99.90;;;;;;5028724;28;20045;-76
2022/12/21 08:39:03;;;;;;;19.60;10.93;;;-1.00;99.90;;;;;;5026417;28;20049;-78
2022/12/21 08:41:32;;;;;;;16.67;9.23;;;-1.10;99.90;;;;;;5027385;28;20050;-77
2022/12/21 08:43:59;;;;;;;16.55;8.68;;;-1.10;99.90;;;;;;5023457;28;20092;-78
2022/12/21 08:46:28;;;;;;;16.63;10.05;;;-1.00;99.90;;;;;;5027782;28;20041;-76
2022/12/21 08:48:56;;;;;;;17.58;9.95;;;-1.10;99.90;;;;;;5027260;28;20053;-75
2022/12/21 08:51:26;;;;;;;16.20;8.77;;;-1.00;99.90;;;;;;5017083;28;20068;-75
2022/12/21 08:53:54;;;;;;;13.98;7.68;;;-0.90;99.90;;;;;;5024071;28;20136;-76
2022/12/21 08:56:23;;;;;;;13.93;8.35;;;-0.90;99.90;;;;;;5032565;28;20064;-76
2022/12/21 08:58:51;;;;;;;17.35;10.10;;;-0.90;99.90;;;;;;5026926;28;20510;-78
2022/12/21 09:01:20;;;;;;;18.05;9.98;;;-0.80;99.90;;;;;;5025871;28;20058;-76
2022/12/21 09:03:50;;;;;;;16.45;9.82;;;-0.80;99.90;;;;;;5027393;28;20447;-75
2022/12/21 09:06:17;;;;;;;14.27;8.75;;;-0.80;99.90;;;;;;5029136;28;20041;-77
2022/12/21 09:08:45;;;;;;;15.38;9.02;;;-0.80;99.90;;;;;;5029964;28;20530;-78
2022/12/21 09:11:16;;;;;;;16.40;8.63;;;-0.70;99.90;;;;;;5037249;28;20072;-76
2022/12/21 09:13:44;;;;;;;14.95;8.23;;;-0.70;99.90;;;;;;5012617;28;20045;-76
2022/12/21 09:16:14;;;;;;;12.63;7.72;;;-0.60;99.90;;;;;;5028583;28;20442;-77
2022/12/21 09:18:43;;;;;;;12.98;7.57;;;-0.60;99.90;;;;;;5027566;28;20045;-77
2022/12/21 09:21:13;;;;;;;14.05;8.60;;;-0.50;99.90;;;;;;5025081;28;20046;-78
2022/12/21 09:23:41;;;;;;;11.55;7.40;;;-0.50;99.90;;;;;;5027947;28;20045;-77
2022/12/21 09:26:10;;;;;;;15.60;8.00;;;-0.40;99.90;;;;;;5027989;28;20045;-77
2022/12/21 09:28:38;;;;;;;13.48;6.95;;;-0.40;99.90;;;;;;5026735;28;20049;-76
2022/12/21 09:31:13;;;;;;;11.63;7.05;;;-0.40;99.90;;;;;;5027041;28;20119;-76
2022/12/21 09:33:42;;;;;;;12.38;7.10;;;-0.40;99.90;;;;;;5027948;28;20048;-79
2022/12/21 09:36:12;;;;;;;12.00;6.63;;;-0.40;99.90;;;;;;5028441;28;20045;-77
2022/12/21 09:38:41;;;;;;;10.95;6.80;;;-0.30;99.90;;;;;;5026844;28;20049;-76
2022/12/21 09:41:45;;;;;;;13.38;6.90;;;-0.30;99.90;;;;;;5024015;28;20064;-78
2022/12/21 09:44:34;;;;;;;9.43;6.47;;;-0.30;99.90;;;;;;5017493;28;20073;-78
2022/12/21 09:47:05;;;;;;;13.43;6.28;;;-0.20;99.90;;;;;;5026134;28;20049;-78
2022/12/21 09:49:41;;;;;;;11.80;6.97;;;-0.20;99.90;;;;;;5041319;28;20041;-77
2022/12/21 09:52:21;;;;;;;12.93;6.60;;;-0.10;99.90;;;;;;5028406;28;20053;-78
2022/12/21 09:54:57;;;;;;;10.20;6.28;;;-0.20;99.90;;;;;;5043141;28;20046;-77
2022/12/21 09:57:32;;;;;;;10.50;6.88;;;-0.10;99.90;;;;;;5024889;28;20045;-78
2022/12/21 10:00:01;;;;;;;12.20;6.80;;;-0.10;99.90;;;;;;5028407;28;20626;-79
2022/12/21 10:03:08;;;;;;;9.63;6.80;;;-0.10;99.90;;;;;;5027260;28;20080;-77
2022/12/21 10:05:53;;;;;;;12.60;7.18;;;-0.10;99.90;;;;;;5025322;28;20544;-77
2022/12/21 10:08:56;;;;;;;13.98;6.60;;;-0.10;99.90;;;;;;5025650;28;20509;-77
2022/12/21 10:11:43;;;;;;;14.05;7.97;;;-0.10;99.90;;;;;;5027421;28;20152;-76
2022/12/21 10:14:22;;;;;;;11.32;7.03;;;-0.10;99.90;;;;;;5026192;28;20362;-77
2022/12/21 10:16:56;;;;;;;14.55;7.25;;;-0.10;99.90;;;;;;5024533;28;20359;-76
2022/12/21 10:19:35;;;;;;;12.50;6.35;;;0.00;99.90;;;;;;5026824;28;20650;-76
2022/12/21 10:22:15;;;;;;;8.38;6.05;;;0.00;99.90;;;;;;5027613;28;20064;-77
2022/12/21 10:24:48;;;;;;;10.18;6.25;;;0.00;99.90;;;;;;5040306;28;20127;-76
2022/12/21 10:27:21;;;;;;;11.70;6.55;;;0.00;99.90;;;;;;5025479;28;20045;-79
2022/12/21 10:29:52;;;;;;;;;;;0.00;99.90;;;;;;5026129;28;20045;-77
2022/12/21 10:32:36;;;;;;;8.30;5.28;;;0.10;99.90;;;;;;5025183;28;19986;-76
2022/12/21 10:35:20;;;;;;;9.48;4.28;;;0.10;99.90;;;;;;5023054;28;20105;-76
2022/12/21 10:37:53;;;;;;;7.85;4.05;;;0.10;99.90;;;;;;5027225;28;20378;-77
2022/12/21 10:40:27;;;;;;;5.68;4.15;;;0.20;99.90;;;;;;5027734;28;20437;-76
2022/12/21 10:42:55;;;;;;;6.78;4.47;;;0.20;99.90;;;;;;5028524;28;20088;-76
2022/12/21 10:45:25;;;;;;;9.63;4.90;;;0.30;99.90;;;;;;5025549;28;20045;-75
2022/12/21 10:47:54;;;;;;;10.00;4.85;;;0.30;99.90;;;;;;5029349;28;20055;-75
2022/12/21 10:50:25;;;;;;;8.48;4.70;;;0.30;99.90;;;;;;5026310;28;20042;-76
2022/12/21 10:52:54;;;;;;;10.00;5.20;;;0.40;99.90;;;;;;5039983;28;20049;-77
2022/12/21 10:55:34;;;;;;;8.13;5.03;;;0.40;99.90;;;;;;5025698;28;20088;-74
2022/12/21 10:58:24;;;;;;;12.35;5.68;;;0.50;99.90;;;;;;5027010;28;20049;-76
2022/12/21 11:01:03;;;;;;;9.55;5.30;;;0.50;99.90;;;;;;5035190;28;20458;-75
2022/12/21 11:03:34;;;;;;;8.15;5.28;;;0.60;99.90;;;;;;5024262;28;20060;-75
2022/12/21 11:06:14;;;;;;;9.55;5.63;;;0.60;99.90;;;;;;5028315;28;20453;-76
2022/12/21 11:08:46;;;;;;;8.85;5.28;;;0.70;99.90;;;;;;5023757;28;20046;-75
2022/12/21 11:11:38;;;;;;;6.38;5.65;;;0.60;99.90;;;;;;5027963;28;20045;-74
2022/12/21 11:14:15;;;;;;;11.77;5.53;;;0.70;99.90;;;;;;5025132;28;20506;-74
2022/12/21 11:16:44;;;;;;;8.07;4.80;;;0.70;99.90;;;;;;5024342;28;20063;-74
2022/12/21 11:19:14;;;;;;;11.18;6.15;;;0.80;99.90;;;;;;5027561;28;20046;-76
2022/12/21 11:21:48;;;;;;;8.57;5.60;;;0.80;99.90;;;;;;5024786;28;20054;-78
2022/12/21 11:24:24;;;;;;;10.57;4.45;;;0.90;99.90;;;;;;5025713;28;20387;-75
2022/12/21 11:26:57;;;;;;;11.35;5.35;;;0.90;99.90;;;;;;5022919;28;20149;-75
2022/12/21 11:29:28;;;;;;;9.93;6.20;;;1.00;99.90;;;;;;5028188;28;20042;-75
2022/12/21 11:32:04;;;;;;;11.63;5.55;;;1.00;99.90;;;;;;5026801;28;20119;-81
2022/12/21 11:34:39;;;;;;;7.10;5.07;;;1.00;99.90;;;;;;5025823;28;20140;-78
2022/12/21 11:37:22;;;;;;;7.05;5.00;;;1.00;99.90;;;;;;5026045;28;20053;-80
2022/12/21 11:39:50;;;;;;;8.50;5.07;;;1.00;99.90;;;;;;5024259;28;20464;-79
2022/12/21 11:42:22;;;;;;;14.90;5.45;;;1.00;99.90;;;;;;5043813;28;20141;-76
2022/12/21 11:45:08;;;;;;;6.70;4.72;;;1.00;99.90;;;;;;5008087;28;20131;-80
2022/12/21 11:47:51;;;;;;;7.55;4.80;;;1.00;99.90;;;;;;5026808;28;20055;-81
2022/12/21 11:50:45;;;;;;;8.40;4.88;;;1.00;99.90;;;;;;5022115;28;20046;-77
2022/12/21 11:53:39;;;;;;;8.77;5.55;;;1.00;99.90;;;;;;5026907;28;20049;-78
2022/12/21 11:56:26;;;;;;;8.65;5.90;;;1.00;99.90;;;;;;5025337;28;20145;-78
2022/12/21 11:59:37;;;;;;;14.32;6.50;;;1.10;99.90;;;;;;5022237;28;20045;-77
2022/12/21 12:02:53;;;;;;;10.45;5.45;;;1.10;99.90;;;;;;5021364;28;20064;-79
2022/12/21 12:05:36;;;;;;;9.00;5.13;;;1.10;99.90;;;;;;5011374;28;20050;-78
2022/12/21 12:08:09;;;;;;;11.57;6.55;;;1.00;99.90;;;;;;5024250;28;20080;-77
2022/12/21 12:11:09;;;;;;;6.40;5.13;;;1.10;99.90;;;;;;5027053;28;20045;-78
2022/12/21 12:14:08;;;;;;;9.50;5.53;;;1.10;99.90;;;;;;5027680;28;20045;-78
2022/12/21 12:16:51;;;;;;;10.45;5.15;;;1.10;99.90;;;;;;5024908;28;20050;-76
2022/12/21 12:19:30;;;;;;;7.97;4.97;;;1.10;99.90;;;;;;5035062;28;20049;-78
2022/12/21 12:22:15;;;;;;;10.70;6.07;;;1.10;99.90;;;;;;5028391;28;20109;-78
2022/12/21 12:25:10;;;;;;;9.10;5.60;;;1.10;99.90;;;;;;5029302;28;20057;-77
2022/12/21 12:27:56;;;;;;;10.32;5.55;;;1.20;99.90;;;;;;5021785;28;20572;-77
2022/12/21 12:30:27;;;;;;;7.88;5.25;;;1.20;99.90;;;;;;5041533;28;20144;-77
2022/12/21 12:33:10;;;;;;;8.43;5.13;;;1.20;99.90;;;;;;5028727;28;20053;-78
2022/12/21 12:36:08;;;;;;;10.07;5.03;;;1.30;99.90;;;;;;5028156;28;20045;-78
2022/12/21 12:38:48;;;;;;;7.03;5.22;;;1.30;99.90;;;;;;5025203;28;20052;-77
2022/12/21 12:41:33;;;;;;;9.35;6.07;;;1.40;99.90;;;;;;5033751;28;20053;-78
2022/12/21 12:44:05;;;;;;;14.70;5.80;;;1.40;99.90;;;;;;5020881;28;20604;-76
2022/12/21 12:46:57;;;;;;;11.70;5.97;;;1.50;99.90;;;;;;5013976;28;20054;-77
2022/12/21 12:49:52;;;;;;;8.75;4.55;;;1.50;99.90;;;;;;5017870;28;20401;-78
2022/12/21 12:52:41;;;;;;;10.80;5.38;;;1.50;99.90;;;;;;5029227;28;20061;-78
2022/12/21 12:55:18;;;;;;;10.45;5.75;;;1.50;99.90;;;;;;5011411;28;20095;-78
2022/12/21 12:57:56;;;;;;;13.88;6.28;;;1.50;99.90;;;;;;5029259;28;20053;-77
2022/12/21 13:00:26;;;;;;;12.02;5.57;;;1.50;99.90;;;;;;5025965;28;21027;-78
2022/12/21 13:03:04;;;;;;;11.77;5.60;;;1.50;99.90;;;;;;5024942;28;20316;-78
2022/12/21 13:05:51;;;;;;;10.40;6.78;;;1.60;99.90;;;;;;5022294;28;20308;-80
2022/12/21 13:08:38;;;;;;;11.23;6.47;;;1.60;99.90;;;;;;5021268;28;20077;-78
2022/12/21 13:11:17;;;;;;;12.88;6.63;;;1.70;99.90;;;;;;5018991;28;20050;-77
2022/12/21 13:13:51;;;;;;;14.18;7.15;;;1.70;99.90;;;;;;5020308;28;20071;-80
2022/12/21 13:16:30;;;;;;;12.00;6.50;;;1.70;99.90;;;;;;5022306;28;20552;-80
2022/12/21 13:19:01;;;;;;;10.75;6.50;;;1.70;99.90;;;;;;5021530;28;20049;-78
2022/12/21 13:21:34;;;;;;;14.32;6.80;;;1.70;99.90;;;;;;5022145;28;20132;-75
2022/12/21 13:24:08;;;;;;;14.90;6.90;;;1.70;99.90;;;;;;5024130;28;20063;-75
2022/12/21 13:26:43;;;;;;;13.90;7.97;;;1.60;99.90;;;;;;5023485;28;20068;-76